sensor_id;sensor_type;location;lat;lon;timestamp;P1;durP1;ratioP1;P2;durP2;ratioP2
24147;SDS011;12309;51.450;-2.624;2024-03-08T00:01:59;46.93;;;23.10;;
24147;SDS011;12309;51.450;-2.624;2024-03-08T00:04:25;42.50;;;23.13;;
24147;SDS011;12309;51.450;-2.624;2024-03-08T00:06:51;42.50;;;22.93;;
24147;SDS011;12309;51.450;-2.624;2024-03-08T00:09:17;42.33;;;23.20;;
24147;SDS011;12309;51.450;-2.624;2024-03-08T00:11:42;50.87;;;23.67;;
24147;SDS011;12309;51.450;-2.624;2024-03-08T00:14:08;44.93;;;23.93;;
24147;SDS011;12309;51.450;-2.624;2024-03-08T00:16:34;45.40;;;24.17;;
24147;SDS011;12309;51.450;-2.624;2024-03-08T00:19:00;42.43;;;24.33;;
24147;SDS011;12309;51.450;-2.624;2024-03-08T00:21:26;41.80;;;23.77;;
24147;SDS011;12309;51.450;-2.624;2024-03-08T00:23:52;54.30;;;25.13;;
24147;SDS011;12309;51.450;-2.624;2024-03-08T00:26:20;46.60;;;24.77;;
24147;SDS011;12309;51.450;-2.624;2024-03-08T00:28:47;40.90;;;23.70;;
24147;SDS011;12309;51.450;-2.624;2024-03-08T00:31:13;52.57;;;26.13;;
24147;SDS011;12309;51.450;-2.624;2024-03-08T00:33:41;46.13;;;23.57;;
24147;SDS011;12309;51.450;-2.624;2024-03-08T00:36:07;44.27;;;24.50;;
24147;SDS011;12309;51.450;-2.624;2024-03-08T00:38:33;45.90;;;25.43;;
24147;SDS011;12309;51.450;-2.624;2024-03-08T00:40:59;48.43;;;25.63;;
24147;SDS011;12309;51.450;-2.624;2024-03-08T00:43:25;43.23;;;23.63;;
24147;SDS011;12309;51.450;-2.624;2024-03-08T00:45:51;47.67;;;24.90;;
24147;SDS011;12309;51.450;-2.624;2024-03-08T00:48:16;47.70;;;24.33;;
24147;SDS011;12309;51.450;-2.624;2024-03-08T00:50:42;46.37;;;24.07;;
24147;SDS011;12309;51.450;-2.624;2024-03-08T00:53:10;48.10;;;25.43;;
24147;SDS011;12309;51.450;-2.624;2024-03-08T00:55:37;47.00;;;25.27;;
24147;SDS011;12309;51.450;-2.624;2024-03-08T00:58:03;50.23;;;25.63;;
24147;SDS011;12309;51.450;-2.624;2024-03-08T01:00:29;44.63;;;24.83;;
24147;SDS011;12309;51.450;-2.624;2024-03-08T01:02:54;47.07;;;25.70;;
24147;SDS011;12309;51.450;-2.624;2024-03-08T01:05:20;52.37;;;26.40;;
24147;SDS011;12309;51.450;-2.624;2024-03-08T01:07:47;50.53;;;25.50;;
24147;SDS011;12309;51.450;-2.624;2024-03-08T01:10:14;46.57;;;25.53;;
24147;SDS011;12309;51.450;-2.624;2024-03-08T01:12:40;46.70;;;26.10;;
24147;SDS011;12309;51.450;-2.624;2024-03-08T01:15:08;45.00;;;25.07;;
24147;SDS011;12309;51.450;-2.624;2024-03-08T01:17:35;50.07;;;25.80;;
24147;SDS011;12309;51.450;-2.624;2024-03-08T01:20:01;43.80;;;24.20;;
24147;SDS011;12309;51.450;-2.624;2024-03-08T01:22:28;47.70;;;25.90;;
24147;SDS011;12309;51.450;-2.624;2024-03-08T01:24:54;45.27;;;25.80;;
24147;SDS011;12309;51.450;-2.624;2024-03-08T01:27:20;47.70;;;26.50;;
24147;SDS011;12309;51.450;-2.624;2024-03-08T01:29:47;45.53;;;25.90;;
24147;SDS011;12309;51.450;-2.624;2024-03-08T01:32:12;46.33;;;25.50;;
24147;SDS011;12309;51.450;-2.624;2024-03-08T01:34:38;48.20;;;25.90;;
24147;SDS011;12309;51.450;-2.624;2024-03-08T01:37:04;47.97;;;25.73;;
24147;SDS011;12309;51.450;-2.624;2024-03-08T01:39:29;48.17;;;26.23;;
24147;SDS011;12309;51.450;-2.624;2024-03-08T01:41:57;48.40;;;25.30;;
24147;SDS011;12309;51.450;-2.624;2024-03-08T01:44:23;49.33;;;25.73;;
24147;SDS011;12309;51.450;-2.624;2024-03-08T01:46:49;44.57;;;25.03;;
24147;SDS011;12309;51.450;-2.624;2024-03-08T01:49:17;45.07;;;25.07;;
24147;SDS011;12309;51.450;-2.624;2024-03-08T01:51:45;44.93;;;24.97;;
24147;SDS011;12309;51.450;-2.624;2024-03-08T01:54:12;45.30;;;25.67;;
24147;SDS011;12309;51.450;-2.624;2024-03-08T01:56:40;43.80;;;25.67;;
24147;SDS011;12309;51.450;-2.624;2024-03-08T01:59:06;44.70;;;24.70;;
24147;SDS011;12309;51.450;-2.624;2024-03-08T02:01:32;46.80;;;25.47;;
24147;SDS011;12309;51.450;-2.624;2024-03-08T02:03:59;46.70;;;24.93;;
24147;SDS011;12309;51.450;-2.624;2024-03-08T02:06:25;50.43;;;25.20;;
24147;SDS011;12309;51.450;-2.624;2024-03-08T02:08:50;42.67;;;24.83;;
24147;SDS011;12309;51.450;-2.624;2024-03-08T02:11:16;49.70;;;25.00;;
24147;SDS011;12309;51.450;-2.624;2024-03-08T02:13:43;47.67;;;26.33;;
24147;SDS011;12309;51.450;-2.624;2024-03-08T02:16:10;46.37;;;25.47;;
24147;SDS011;12309;51.450;-2.624;2024-03-08T02:18:36;45.77;;;25.10;;
24147;SDS011;12309;51.450;-2.624;2024-03-08T02:21:02;43.40;;;25.53;;
24147;SDS011;12309;51.450;-2.624;2024-03-08T02:23:29;54.33;;;26.47;;
24147;SDS011;12309;51.450;-2.624;2024-03-08T02:25:55;48.13;;;26.37;;
24147;SDS011;12309;51.450;-2.624;2024-03-08T02:28:22;43.87;;;25.53;;
24147;SDS011;12309;51.450;-2.624;2024-03-08T02:30:50;51.23;;;27.03;;
24147;SDS011;12309;51.450;-2.624;2024-03-08T02:33:16;44.80;;;26.70;;
24147;SDS011;12309;51.450;-2.624;2024-03-08T02:35:46;47.80;;;27.70;;
24147;SDS011;12309;51.450;-2.624;2024-03-08T02:38:12;49.60;;;27.37;;
24147;SDS011;12309;51.450;-2.624;2024-03-08T02:40:41;44.43;;;25.63;;
24147;SDS011;12309;51.450;-2.624;2024-03-08T02:43:07;47.37;;;26.83;;
24147;SDS011;12309;51.450;-2.624;2024-03-08T02:45:33;53.40;;;27.27;;
24147;SDS011;12309;51.450;-2.624;2024-03-08T02:48:00;52.90;;;27.27;;
24147;SDS011;12309;51.450;-2.624;2024-03-08T02:50:25;50.90;;;28.03;;
24147;SDS011;12309;51.450;-2.624;2024-03-08T02:52:51;47.03;;;28.23;;
24147;SDS011;12309;51.450;-2.624;2024-03-08T02:55:17;54.57;;;26.93;;
24147;SDS011;12309;51.450;-2.624;2024-03-08T02:57:43;48.00;;;26.43;;
24147;SDS011;12309;51.450;-2.624;2024-03-08T03:00:09;50.70;;;28.73;;
24147;SDS011;12309;51.450;-2.624;2024-03-08T03:02:35;48.30;;;28.50;;
24147;SDS011;12309;51.450;-2.624;2024-03-08T03:05:02;50.83;;;28.23;;
24147;SDS011;12309;51.450;-2.624;2024-03-08T03:07:31;51.83;;;28.30;;
24147;SDS011;12309;51.450;-2.624;2024-03-08T03:09:58;51.13;;;28.13;;
24147;SDS011;12309;51.450;-2.624;2024-03-08T03:12:25;52.30;;;28.47;;
24147;SDS011;12309;51.450;-2.624;2024-03-08T03:14:55;52.60;;;28.97;;
24147;SDS011;12309;51.450;-2.624;2024-03-08T03:17:22;57.77;;;29.83;;
24147;SDS011;12309;51.450;-2.624;2024-03-08T03:19:48;51.97;;;29.73;;
24147;SDS011;12309;51.450;-2.624;2024-03-08T03:22:13;50.27;;;28.33;;
24147;SDS011;12309;51.450;-2.624;2024-03-08T03:24:40;52.60;;;30.03;;
24147;SDS011;12309;51.450;-2.624;2024-03-08T03:27:07;51.60;;;29.17;;
24147;SDS011;12309;51.450;-2.624;2024-03-08T03:29:37;54.63;;;29.97;;
24147;SDS011;12309;51.450;-2.624;2024-03-08T03:32:07;54.27;;;29.73;;
24147;SDS011;12309;51.450;-2.624;2024-03-08T03:34:33;55.67;;;30.13;;
24147;SDS011;12309;51.450;-2.624;2024-03-08T03:37:02;50.57;;;29.70;;
24147;SDS011;12309;51.450;-2.624;2024-03-08T03:39:29;51.77;;;30.50;;
24147;SDS011;12309;51.450;-2.624;2024-03-08T03:41:59;52.47;;;30.50;;
24147;SDS011;12309;51.450;-2.624;2024-03-08T03:44:27;51.03;;;29.10;;
24147;SDS011;12309;51.450;-2.624;2024-03-08T03:46:53;57.23;;;31.10;;
24147;SDS011;12309;51.450;-2.624;2024-03-08T03:49:19;51.00;;;30.57;;
24147;SDS011;12309;51.450;-2.624;2024-03-08T03:51:45;52.70;;;30.73;;
24147;SDS011;12309;51.450;-2.624;2024-03-08T03:54:11;55.27;;;31.20;;
24147;SDS011;12309;51.450;-2.624;2024-03-08T03:56:37;55.90;;;31.33;;
24147;SDS011;12309;51.450;-2.624;2024-03-08T03:59:04;56.37;;;33.10;;
24147;SDS011;12309;51.450;-2.624;2024-03-08T04:01:31;63.07;;;32.27;;
24147;SDS011;12309;51.450;-2.624;2024-03-08T04:03:58;52.60;;;31.47;;
24147;SDS011;12309;51.450;-2.624;2024-03-08T04:06:23;54.23;;;31.70;;
24147;SDS011;12309;51.450;-2.624;2024-03-08T04:08:49;56.57;;;31.70;;
24147;SDS011;12309;51.450;-2.624;2024-03-08T04:11:15;58.53;;;31.53;;
24147;SDS011;12309;51.450;-2.624;2024-03-08T04:13:43;57.53;;;30.17;;
24147;SDS011;12309;51.450;-2.624;2024-03-08T04:16:09;58.97;;;30.87;;
24147;SDS011;12309;51.450;-2.624;2024-03-08T04:18:36;58.23;;;31.33;;
24147;SDS011;12309;51.450;-2.624;2024-03-08T04:21:05;57.27;;;31.50;;
24147;SDS011;12309;51.450;-2.624;2024-03-08T04:23:31;57.03;;;30.87;;
24147;SDS011;12309;51.450;-2.624;2024-03-08T04:26:00;57.03;;;31.67;;
24147;SDS011;12309;51.450;-2.624;2024-03-08T04:28:30;57.30;;;31.40;;
24147;SDS011;12309;51.450;-2.624;2024-03-08T04:30:56;58.43;;;31.33;;
24147;SDS011;12309;51.450;-2.624;2024-03-08T04:33:22;57.60;;;31.13;;
24147;SDS011;12309;51.450;-2.624;2024-03-08T04:35:48;56.07;;;31.80;;
24147;SDS011;12309;51.450;-2.624;2024-03-08T04:38:14;54.17;;;30.47;;
24147;SDS011;12309;51.450;-2.624;2024-03-08T04:40:40;52.70;;;30.70;;
24147;SDS011;12309;51.450;-2.624;2024-03-08T04:43:06;53.13;;;31.27;;
24147;SDS011;12309;51.450;-2.624;2024-03-08T04:45:33;52.90;;;30.97;;
24147;SDS011;12309;51.450;-2.624;2024-03-08T04:47:59;59.07;;;31.23;;
24147;SDS011;12309;51.450;-2.624;2024-03-08T04:50:25;54.07;;;30.97;;
24147;SDS011;12309;51.450;-2.624;2024-03-08T04:52:54;54.03;;;31.87;;
24147;SDS011;12309;51.450;-2.624;2024-03-08T04:55:20;56.80;;;31.87;;
24147;SDS011;12309;51.450;-2.624;2024-03-08T04:57:46;59.10;;;30.87;;
24147;SDS011;12309;51.450;-2.624;2024-03-08T05:00:12;54.07;;;31.40;;
24147;SDS011;12309;51.450;-2.624;2024-03-08T05:02:39;57.70;;;30.33;;
24147;SDS011;12309;51.450;-2.624;2024-03-08T05:05:06;55.17;;;31.53;;
24147;SDS011;12309;51.450;-2.624;2024-03-08T05:07:32;51.03;;;31.00;;
24147;SDS011;12309;51.450;-2.624;2024-03-08T05:09:58;58.33;;;30.97;;
24147;SDS011;12309;51.450;-2.624;2024-03-08T05:12:24;56.90;;;31.73;;
24147;SDS011;12309;51.450;-2.624;2024-03-08T05:14:50;55.37;;;30.37;;
24147;SDS011;12309;51.450;-2.624;2024-03-08T05:17:15;57.47;;;32.47;;
24147;SDS011;12309;51.450;-2.624;2024-03-08T05:19:44;52.60;;;31.00;;
24147;SDS011;12309;51.450;-2.624;2024-03-08T05:22:09;54.17;;;30.63;;
24147;SDS011;12309;51.450;-2.624;2024-03-08T05:24:35;55.43;;;31.03;;
24147;SDS011;12309;51.450;-2.624;2024-03-08T05:27:01;58.40;;;31.00;;
24147;SDS011;12309;51.450;-2.624;2024-03-08T05:29:28;52.40;;;29.73;;
24147;SDS011;12309;51.450;-2.624;2024-03-08T05:31:54;55.90;;;30.63;;
24147;SDS011;12309;51.450;-2.624;2024-03-08T05:34:20;52.60;;;30.67;;
24147;SDS011;12309;51.450;-2.624;2024-03-08T05:36:47;59.47;;;31.17;;
24147;SDS011;12309;51.450;-2.624;2024-03-08T05:39:15;61.87;;;33.50;;
24147;SDS011;12309;51.450;-2.624;2024-03-08T05:41:42;50.20;;;30.20;;
24147;SDS011;12309;51.450;-2.624;2024-03-08T05:44:08;55.37;;;30.50;;
24147;SDS011;12309;51.450;-2.624;2024-03-08T05:46:35;54.37;;;30.57;;
24147;SDS011;12309;51.450;-2.624;2024-03-08T05:49:05;58.27;;;30.73;;
24147;SDS011;12309;51.450;-2.624;2024-03-08T05:51:32;54.70;;;30.03;;
24147;SDS011;12309;51.450;-2.624;2024-03-08T05:54:00;56.17;;;30.17;;
24147;SDS011;12309;51.450;-2.624;2024-03-08T05:56:30;52.33;;;30.37;;
24147;SDS011;12309;51.450;-2.624;2024-03-08T05:58:56;55.17;;;30.93;;
24147;SDS011;12309;51.450;-2.624;2024-03-08T06:01:23;48.80;;;29.10;;
24147;SDS011;12309;51.450;-2.624;2024-03-08T06:03:49;53.87;;;30.60;;
24147;SDS011;12309;51.450;-2.624;2024-03-08T06:06:15;53.23;;;29.60;;
24147;SDS011;12309;51.450;-2.624;2024-03-08T06:08:42;58.27;;;30.93;;
24147;SDS011;12309;51.450;-2.624;2024-03-08T06:11:08;53.93;;;30.13;;
24147;SDS011;12309;51.450;-2.624;2024-03-08T06:13:34;49.50;;;28.67;;
24147;SDS011;12309;51.450;-2.624;2024-03-08T06:16:01;56.47;;;29.97;;
24147;SDS011;12309;51.450;-2.624;2024-03-08T06:18:29;54.20;;;30.37;;
24147;SDS011;12309;51.450;-2.624;2024-03-08T06:20:57;53.73;;;28.87;;
24147;SDS011;12309;51.450;-2.624;2024-03-08T06:23:23;58.33;;;30.30;;
24147;SDS011;12309;51.450;-2.624;2024-03-08T06:25:48;48.30;;;29.10;;
24147;SDS011;12309;51.450;-2.624;2024-03-08T06:28:14;47.17;;;29.37;;
24147;SDS011;12309;51.450;-2.624;2024-03-08T06:30:40;52.77;;;30.50;;
24147;SDS011;12309;51.450;-2.624;2024-03-08T06:33:06;47.40;;;28.90;;
24147;SDS011;12309;51.450;-2.624;2024-03-08T06:35:35;50.93;;;27.90;;
24147;SDS011;12309;51.450;-2.624;2024-03-08T06:38:03;50.57;;;28.07;;
24147;SDS011;12309;51.450;-2.624;2024-03-08T06:40:29;53.53;;;28.57;;
24147;SDS011;12309;51.450;-2.624;2024-03-08T06:42:54;49.70;;;28.67;;
24147;SDS011;12309;51.450;-2.624;2024-03-08T06:45:20;49.60;;;27.10;;
24147;SDS011;12309;51.450;-2.624;2024-03-08T06:47:48;50.37;;;28.13;;
24147;SDS011;12309;51.450;-2.624;2024-03-08T06:50:14;51.90;;;28.40;;
24147;SDS011;12309;51.450;-2.624;2024-03-08T06:52:40;48.27;;;27.90;;
24147;SDS011;12309;51.450;-2.624;2024-03-08T06:55:07;58.30;;;28.87;;
24147;SDS011;12309;51.450;-2.624;2024-03-08T06:57:37;50.10;;;27.40;;
24147;SDS011;12309;51.450;-2.624;2024-03-08T07:00:05;45.90;;;26.80;;
24147;SDS011;12309;51.450;-2.624;2024-03-08T07:02:34;50.27;;;26.60;;
24147;SDS011;12309;51.450;-2.624;2024-03-08T07:05:00;50.77;;;28.50;;
24147;SDS011;12309;51.450;-2.624;2024-03-08T07:07:26;47.40;;;27.00;;
24147;SDS011;12309;51.450;-2.624;2024-03-08T07:09:52;45.47;;;26.77;;
24147;SDS011;12309;51.450;-2.624;2024-03-08T07:12:18;44.10;;;25.90;;
24147;SDS011;12309;51.450;-2.624;2024-03-08T07:14:45;44.20;;;26.00;;
24147;SDS011;12309;51.450;-2.624;2024-03-08T07:17:12;53.33;;;27.43;;
24147;SDS011;12309;51.450;-2.624;2024-03-08T07:19:37;48.87;;;26.70;;
24147;SDS011;12309;51.450;-2.624;2024-03-08T07:22:04;46.67;;;26.90;;
24147;SDS011;12309;51.450;-2.624;2024-03-08T07:24:33;47.70;;;25.63;;
24147;SDS011;12309;51.450;-2.624;2024-03-08T07:27:18;44.20;;;26.03;;
24147;SDS011;12309;51.450;-2.624;2024-03-08T07:29:43;47.47;;;25.50;;
24147;SDS011;12309;51.450;-2.624;2024-03-08T07:32:10;48.63;;;26.77;;
24147;SDS011;12309;51.450;-2.624;2024-03-08T07:34:48;45.33;;;25.47;;
24147;SDS011;12309;51.450;-2.624;2024-03-08T07:37:15;43.33;;;24.87;;
24147;SDS011;12309;51.450;-2.624;2024-03-08T07:39:41;46.63;;;25.30;;
24147;SDS011;12309;51.450;-2.624;2024-03-08T07:42:08;53.87;;;28.37;;
24147;SDS011;12309;51.450;-2.624;2024-03-08T07:44:36;49.10;;;24.87;;
24147;SDS011;12309;51.450;-2.624;2024-03-08T07:47:02;44.80;;;25.07;;
24147;SDS011;12309;51.450;-2.624;2024-03-08T07:49:28;50.13;;;26.47;;
24147;SDS011;12309;51.450;-2.624;2024-03-08T07:51:55;46.20;;;25.37;;
24147;SDS011;12309;51.450;-2.624;2024-03-08T07:54:21;48.13;;;25.50;;
24147;SDS011;12309;51.450;-2.624;2024-03-08T07:56:47;40.20;;;22.60;;
24147;SDS011;12309;51.450;-2.624;2024-03-08T07:59:12;45.40;;;25.07;;
24147;SDS011;12309;51.450;-2.624;2024-03-08T08:01:38;43.00;;;24.70;;
24147;SDS011;12309;51.450;-2.624;2024-03-08T08:04:04;44.30;;;24.80;;
24147;SDS011;12309;51.450;-2.624;2024-03-08T08:06:30;50.43;;;25.40;;
24147;SDS011;12309;51.450;-2.624;2024-03-08T08:08:59;49.43;;;26.23;;
24147;SDS011;12309;51.450;-2.624;2024-03-08T08:11:28;49.60;;;25.73;;
24147;SDS011;12309;51.450;-2.624;2024-03-08T08:13:54;48.63;;;26.10;;
24147;SDS011;12309;51.450;-2.624;2024-03-08T08:16:22;47.40;;;27.13;;
24147;SDS011;12309;51.450;-2.624;2024-03-08T08:18:48;49.57;;;26.47;;
24147;SDS011;12309;51.450;-2.624;2024-03-08T08:21:15;49.30;;;25.80;;
24147;SDS011;12309;51.450;-2.624;2024-03-08T08:23:40;50.77;;;25.77;;
24147;SDS011;12309;51.450;-2.624;2024-03-08T08:26:06;56.77;;;28.43;;
24147;SDS011;12309;51.450;-2.624;2024-03-08T08:28:32;51.37;;;28.13;;
24147;SDS011;12309;51.450;-2.624;2024-03-08T08:30:59;50.73;;;27.33;;
24147;SDS011;12309;51.450;-2.624;2024-03-08T08:33:24;48.13;;;26.70;;
24147;SDS011;12309;51.450;-2.624;2024-03-08T08:35:50;50.50;;;27.90;;
24147;SDS011;12309;51.450;-2.624;2024-03-08T08:38:18;56.83;;;28.03;;
24147;SDS011;12309;51.450;-2.624;2024-03-08T08:40:45;50.33;;;25.57;;
24147;SDS011;12309;51.450;-2.624;2024-03-08T08:43:12;49.93;;;26.37;;
24147;SDS011;12309;51.450;-2.624;2024-03-08T08:45:38;54.93;;;27.67;;
24147;SDS011;12309;51.450;-2.624;2024-03-08T08:48:03;56.70;;;27.80;;
24147;SDS011;12309;51.450;-2.624;2024-03-08T08:50:30;53.40;;;28.60;;
24147;SDS011;12309;51.450;-2.624;2024-03-08T08:52:56;54.07;;;26.10;;
24147;SDS011;12309;51.450;-2.624;2024-03-08T08:55:22;56.10;;;27.67;;
24147;SDS011;12309;51.450;-2.624;2024-03-08T08:57:51;54.83;;;28.43;;
24147;SDS011;12309;51.450;-2.624;2024-03-08T09:00:17;55.47;;;28.30;;
24147;SDS011;12309;51.450;-2.624;2024-03-08T09:02:48;56.53;;;27.77;;
24147;SDS011;12309;51.450;-2.624;2024-03-08T09:05:16;53.47;;;27.90;;
24147;SDS011;12309;51.450;-2.624;2024-03-08T09:07:42;55.70;;;28.57;;
24147;SDS011;12309;51.450;-2.624;2024-03-08T09:10:09;57.80;;;27.93;;
24147;SDS011;12309;51.450;-2.624;2024-03-08T09:12:37;54.57;;;27.63;;
24147;SDS011;12309;51.450;-2.624;2024-03-08T09:15:05;48.83;;;26.17;;
24147;SDS011;12309;51.450;-2.624;2024-03-08T09:17:36;56.77;;;27.83;;
24147;SDS011;12309;51.450;-2.624;2024-03-08T09:20:05;50.53;;;27.23;;
24147;SDS011;12309;51.450;-2.624;2024-03-08T09:22:32;49.63;;;26.23;;
24147;SDS011;12309;51.450;-2.624;2024-03-08T09:24:57;54.00;;;27.33;;
24147;SDS011;12309;51.450;-2.624;2024-03-08T09:27:23;57.93;;;28.27;;
24147;SDS011;12309;51.450;-2.624;2024-03-08T09:29:49;58.00;;;27.37;;
24147;SDS011;12309;51.450;-2.624;2024-03-08T09:32:14;52.73;;;25.77;;
24147;SDS011;12309;51.450;-2.624;2024-03-08T09:34:40;54.93;;;25.57;;
24147;SDS011;12309;51.450;-2.624;2024-03-08T09:37:06;48.67;;;25.93;;
24147;SDS011;12309;51.450;-2.624;2024-03-08T09:39:33;56.43;;;28.20;;
24147;SDS011;12309;51.450;-2.624;2024-03-08T09:41:59;58.70;;;28.33;;
24147;SDS011;12309;51.450;-2.624;2024-03-08T09:44:25;51.77;;;27.00;;
24147;SDS011;12309;51.450;-2.624;2024-03-08T09:46:53;51.17;;;26.83;;
24147;SDS011;12309;51.450;-2.624;2024-03-08T09:49:20;54.27;;;27.83;;
24147;SDS011;12309;51.450;-2.624;2024-03-08T09:51:46;50.27;;;26.40;;
24147;SDS011;12309;51.450;-2.624;2024-03-08T09:54:12;49.83;;;26.13;;
24147;SDS011;12309;51.450;-2.624;2024-03-08T09:56:41;56.93;;;25.80;;
24147;SDS011;12309;51.450;-2.624;2024-03-08T09:59:09;55.73;;;26.73;;
24147;SDS011;12309;51.450;-2.624;2024-03-08T10:01:47;55.90;;;25.77;;
24147;SDS011;12309;51.450;-2.624;2024-03-08T10:04:13;46.27;;;24.97;;
24147;SDS011;12309;51.450;-2.624;2024-03-08T10:06:39;51.40;;;27.07;;
24147;SDS011;12309;51.450;-2.624;2024-03-08T10:09:05;56.00;;;28.37;;
24147;SDS011;12309;51.450;-2.624;2024-03-08T10:11:33;53.37;;;27.00;;
24147;SDS011;12309;51.450;-2.624;2024-03-08T10:14:00;50.47;;;24.73;;
24147;SDS011;12309;51.450;-2.624;2024-03-08T10:16:29;51.00;;;26.53;;
24147;SDS011;12309;51.450;-2.624;2024-03-08T10:18:58;46.53;;;23.43;;
24147;SDS011;12309;51.450;-2.624;2024-03-08T10:21:25;48.33;;;26.23;;
24147;SDS011;12309;51.450;-2.624;2024-03-08T10:23:51;48.57;;;26.07;;
24147;SDS011;12309;51.450;-2.624;2024-03-08T10:26:17;51.30;;;24.73;;
24147;SDS011;12309;51.450;-2.624;2024-03-08T10:28:45;45.53;;;25.00;;
24147;SDS011;12309;51.450;-2.624;2024-03-08T10:31:13;51.87;;;24.73;;
24147;SDS011;12309;51.450;-2.624;2024-03-08T10:33:40;45.57;;;24.93;;
24147;SDS011;12309;51.450;-2.624;2024-03-08T10:36:09;48.93;;;25.77;;
24147;SDS011;12309;51.450;-2.624;2024-03-08T10:38:36;52.37;;;25.00;;
24147;SDS011;12309;51.450;-2.624;2024-03-08T10:41:05;46.17;;;23.90;;
24147;SDS011;12309;51.450;-2.624;2024-03-08T10:43:33;46.73;;;24.03;;
24147;SDS011;12309;51.450;-2.624;2024-03-08T10:46:31;46.87;;;25.27;;
24147;SDS011;12309;51.450;-2.624;2024-03-08T10:49:05;47.10;;;23.13;;
24147;SDS011;12309;51.450;-2.624;2024-03-08T10:51:37;52.33;;;24.53;;
24147;SDS011;12309;51.450;-2.624;2024-03-08T10:54:06;44.50;;;23.50;;
24147;SDS011;12309;51.450;-2.624;2024-03-08T10:56:34;45.50;;;23.90;;
24147;SDS011;12309;51.450;-2.624;2024-03-08T10:59:01;42.37;;;23.07;;
24147;SDS011;12309;51.450;-2.624;2024-03-08T11:01:29;47.03;;;22.80;;
24147;SDS011;12309;51.450;-2.624;2024-03-08T11:03:54;43.70;;;23.97;;
24147;SDS011;12309;51.450;-2.624;2024-03-08T11:09:02;43.08;;;23.52;;
24147;SDS011;12309;51.450;-2.624;2024-03-08T11:11:29;43.28;;;22.08;;
24147;SDS011;12309;51.450;-2.624;2024-03-08T11:13:56;44.67;;;23.27;;
24147;SDS011;12309;51.450;-2.624;2024-03-08T11:18:55;40.78;;;21.98;;
24147;SDS011;12309;51.450;-2.624;2024-03-08T11:21:29;40.42;;;21.35;;
24147;SDS011;12309;51.450;-2.624;2024-03-08T11:24:01;42.70;;;22.27;;
24147;SDS011;12309;51.450;-2.624;2024-03-08T11:26:32;44.42;;;22.88;;
24147;SDS011;12309;51.450;-2.624;2024-03-08T11:29:46;47.97;;;22.90;;
24147;SDS011;12309;51.450;-2.624;2024-03-08T11:31:52;44.35;;;22.50;;
24147;SDS011;12309;51.450;-2.624;2024-03-08T11:34:28;44.92;;;21.40;;
24147;SDS011;12309;51.450;-2.624;2024-03-08T11:36:55;35.65;;;20.25;;
24147;SDS011;12309;51.450;-2.624;2024-03-08T11:39:22;32.08;;;17.38;;
24147;SDS011;12309;51.450;-2.624;2024-03-08T11:41:49;38.97;;;21.08;;
24147;SDS011;12309;51.450;-2.624;2024-03-08T11:44:14;37.92;;;21.38;;
24147;SDS011;12309;51.450;-2.624;2024-03-08T11:46:42;41.92;;;20.80;;
24147;SDS011;12309;51.450;-2.624;2024-03-08T11:49:12;34.97;;;19.05;;
24147;SDS011;12309;51.450;-2.624;2024-03-08T11:51:38;41.35;;;21.98;;
24147;SDS011;12309;51.450;-2.624;2024-03-08T11:54:03;36.55;;;21.98;;
24147;SDS011;12309;51.450;-2.624;2024-03-08T11:56:31;38.47;;;21.50;;
24147;SDS011;12309;51.450;-2.624;2024-03-08T11:58:57;34.15;;;20.50;;
24147;SDS011;12309;51.450;-2.624;2024-03-08T12:01:23;36.58;;;20.10;;
24147;SDS011;12309;51.450;-2.624;2024-03-08T12:03:55;37.53;;;21.83;;
24147;SDS011;12309;51.450;-2.624;2024-03-08T12:06:24;45.65;;;22.15;;
24147;SDS011;12309;51.450;-2.624;2024-03-08T12:08:50;34.60;;;21.83;;
24147;SDS011;12309;51.450;-2.624;2024-03-08T12:11:19;37.97;;;21.58;;
24147;SDS011;12309;51.450;-2.624;2024-03-08T12:13:48;40.92;;;21.95;;
24147;SDS011;12309;51.450;-2.624;2024-03-08T12:16:16;40.78;;;21.70;;
24147;SDS011;12309;51.450;-2.624;2024-03-08T12:18:46;35.53;;;21.45;;
24147;SDS011;12309;51.450;-2.624;2024-03-08T12:21:13;36.03;;;21.00;;
24147;SDS011;12309;51.450;-2.624;2024-03-08T12:23:42;33.53;;;19.63;;
24147;SDS011;12309;51.450;-2.624;2024-03-08T12:26:22;37.67;;;22.27;;
24147;SDS011;12309;51.450;-2.624;2024-03-08T12:28:49;36.08;;;21.45;;
24147;SDS011;12309;51.450;-2.624;2024-03-08T12:31:18;35.83;;;21.45;;
24147;SDS011;12309;51.450;-2.624;2024-03-08T12:33:53;35.42;;;21.88;;
24147;SDS011;12309;51.450;-2.624;2024-03-08T12:36:21;38.30;;;22.50;;
24147;SDS011;12309;51.450;-2.624;2024-03-08T12:38:47;42.17;;;22.35;;
24147;SDS011;12309;51.450;-2.624;2024-03-08T12:41:16;36.30;;;21.17;;
24147;SDS011;12309;51.450;-2.624;2024-03-08T12:43:43;37.28;;;21.75;;
24147;SDS011;12309;51.450;-2.624;2024-03-08T12:46:19;39.40;;;21.30;;
24147;SDS011;12309;51.450;-2.624;2024-03-08T12:48:45;35.17;;;21.20;;
24147;SDS011;12309;51.450;-2.624;2024-03-08T12:51:15;41.15;;;22.90;;
24147;SDS011;12309;51.450;-2.624;2024-03-08T12:53:43;42.53;;;21.48;;
24147;SDS011;12309;51.450;-2.624;2024-03-08T12:56:09;35.35;;;22.00;;
24147;SDS011;12309;51.450;-2.624;2024-03-08T12:58:36;31.73;;;21.48;;
24147;SDS011;12309;51.450;-2.624;2024-03-08T13:01:02;36.03;;;20.92;;
24147;SDS011;12309;51.450;-2.624;2024-03-08T13:03:33;35.65;;;21.33;;
24147;SDS011;12309;51.450;-2.624;2024-03-08T13:06:02;34.75;;;20.40;;
24147;SDS011;12309;51.450;-2.624;2024-03-08T13:08:32;31.45;;;19.58;;
24147;SDS011;12309;51.450;-2.624;2024-03-08T13:11:01;29.38;;;19.95;;
24147;SDS011;12309;51.450;-2.624;2024-03-08T13:13:28;31.13;;;19.42;;
24147;SDS011;12309;51.450;-2.624;2024-03-08T13:15:54;36.20;;;19.63;;
24147;SDS011;12309;51.450;-2.624;2024-03-08T13:18:21;33.88;;;18.80;;
24147;SDS011;12309;51.450;-2.624;2024-03-08T13:20:48;34.35;;;19.13;;
24147;SDS011;12309;51.450;-2.624;2024-03-08T13:23:16;31.42;;;19.02;;
24147;SDS011;12309;51.450;-2.624;2024-03-08T13:25:42;33.78;;;18.83;;
24147;SDS011;12309;51.450;-2.624;2024-03-08T13:28:09;34.97;;;19.40;;
24147;SDS011;12309;51.450;-2.624;2024-03-08T13:30:35;30.33;;;18.08;;
24147;SDS011;12309;51.450;-2.624;2024-03-08T13:33:01;33.70;;;18.85;;
24147;SDS011;12309;51.450;-2.624;2024-03-08T13:35:29;29.00;;;18.08;;
24147;SDS011;12309;51.450;-2.624;2024-03-08T13:37:55;33.05;;;17.63;;
24147;SDS011;12309;51.450;-2.624;2024-03-08T13:40:21;31.83;;;18.52;;
24147;SDS011;12309;51.450;-2.624;2024-03-08T13:42:48;30.23;;;17.73;;
24147;SDS011;12309;51.450;-2.624;2024-03-08T13:45:14;33.17;;;17.35;;
24147;SDS011;12309;51.450;-2.624;2024-03-08T13:47:47;26.38;;;17.08;;
24147;SDS011;12309;51.450;-2.624;2024-03-08T13:50:14;30.25;;;16.17;;
24147;SDS011;12309;51.450;-2.624;2024-03-08T13:52:46;29.60;;;16.67;;
24147;SDS011;12309;51.450;-2.624;2024-03-08T13:55:14;29.50;;;16.92;;
24147;SDS011;12309;51.450;-2.624;2024-03-08T13:57:40;28.50;;;16.77;;
24147;SDS011;12309;51.450;-2.624;2024-03-08T14:00:05;35.13;;;18.05;;
24147;SDS011;12309;51.450;-2.624;2024-03-08T14:02:32;33.78;;;19.02;;
24147;SDS011;12309;51.450;-2.624;2024-03-08T14:04:58;28.90;;;16.85;;
24147;SDS011;12309;51.450;-2.624;2024-03-08T14:07:27;33.08;;;17.98;;
24147;SDS011;12309;51.450;-2.624;2024-03-08T14:09:56;37.33;;;17.52;;
24147;SDS011;12309;51.450;-2.624;2024-03-08T14:12:21;29.60;;;17.15;;
24147;SDS011;12309;51.450;-2.624;2024-03-08T14:14:48;28.63;;;17.52;;